x

West Washington - 300nm West Of Aberdeen, Wa (46005) Wave Buoy

7:50pm - Mon 6th Jul 2015 All times are UTC.

  • Sig Wave height 6.6ft
  • Swell Direction
  • Peak Period 8s
  • Average Period 6s
  • Wind
    13mph, 18mph gusts
  • Sea Temp 62°f
  • Air Temp 61°f
  • Sea Pressure 1017.7mb

More Historic Weather Station data

Upgrade to MSW Pro to gain access to the past 30 days of data for over 8000 Wavebouys and Weather Stations around the globe.

Join Pro

Comparision Forecast

View Surf forecast
   
Mon 07/06 7:50pm 6.5ft 8s 6s 13 18 mph 1017.7mb 62f 61f
6:50pm 6.5ft 8s 6s 18 22 mph 1017.4mb 62f 61f
5:50pm 7ft 8s 6s 18 22 mph 1017.4mb 62f 61f
4:50pm 7.5ft 8s 6s 18 22 mph 1017.4mb 62f 61f
3:50pm 7.5ft 8s 6s 18 22 mph 1017.1mb 62f 61f
2:50pm 8ft 8s 6s 18 22 mph 1016.9mb 62f 61f
1:50pm 7.5ft 8s 6s 20 22 mph 1016.3mb 62f 61f
12:50pm 8ft 8s 6s 20 25 mph 1015.7mb 62f 61f
11:50am 8ft 9s 6s 20 25 mph 1015.6mb 62f 61f
10:50am 9ft 8s 6s 20 25 mph 1015.7mb 62f 62f
9:50am 9ft 9s 6s 20 25 mph 1015.5mb 62f 62f
8:50am 10ft 9s 7s 20 25 mph 1015.3mb 62f 62f
7:50am 9ft 8s 7s 25 27 mph 1015mb 62f 62f
6:50am 9.5ft 9s 7s 20 25 mph 1015.2mb 62f 62f
5:50am 9ft 9s 6s 22 27 mph 1015.2mb 62f 62f
4:50am 9ft 9s 6s 22 29 mph 1014.9mb 62f 62f
3:50am 10ft 9s 7s 20 25 mph 1014.9mb 62f 63f
1:50am 10ft 9s 6s 22 27 mph 1014.6mb 62f 63f
12:50am 10ft 9s 6s 25 27 mph 1014.8mb 62f 63f
Sun 07/05 11:50pm 10.5ft 9s 7s 27 31 mph 1014.4mb 62f 63f
10:50pm 10.5ft 9s 7s 25 31 mph 1014.4mb 62f 62f
9:50pm 10ft 9s 6s 25 29 mph 1015mb 62f 62f
8:50pm 10ft 9s 7s 25 29 mph 1015.4mb 62f 62f
7:50pm 10ft 8s 7s 27 31 mph 1015.6mb 62f 62f
6:50pm 11ft 9s 7s 25 29 mph 1015.7mb 62f 62f
5:50pm 10ft 8s 7s 25 31 mph 1016mb 62f 62f
4:50pm 10ft 8s 7s 25 31 mph 1016.2mb 62f 62f
3:50pm 10ft 9s 7s 22 29 mph 1016.3mb 62f 62f
2:50pm 10.5ft 8s 7s 22 29 mph 1016.4mb 62f 62f
1:50pm 10ft 8s 7s 25 31 mph 1016.4mb 62f 62f
12:50pm 10ft 8s 7s 25 31 mph 1016.2mb 62f 62f
11:50am 9ft 8s 6s 22 29 mph 1016.7mb 62f 62f
10:50am 10ft 8s 6s 25 31 mph 1016.9mb 62f 62f
9:50am 8ft 8s 6s 25 31 mph 1017.4mb 62f 62f
8:50am 8ft 8s 6s 25 29 mph 1017.8mb 62f 63f
7:50am 7.5ft 8s 6s 25 29 mph 1018.2mb 62f 62f
6:50am 7ft 7s 6s 22 27 mph 1018.6mb 62f 62f
5:50am 7.5ft 8s 6s 22 29 mph 1019mb 62f 63f
4:50am 7ft 8s 5s 22 29 mph 1018.9mb 62f 63f
3:50am 7.5ft 8s 6s 22 29 mph 1018.9mb 62f 63f
2:50am 8.5ft 8s 6s 22 27 mph 1018.9mb 62f 63f
1:50am 7.5ft 8s 6s 22 27 mph 1019mb 62f 63f
Sat 07/04 11:50pm 8ft 8s 6s 20 25 mph 1019.6mb 62f 63f
10:50pm 8ft 7s 6s 22 27 mph 1020mb 62f 63f
9:50pm 8ft 7s 6s 22 29 mph 1020.2mb 62f 63f
8:50pm 8ft 8s 6s 22 27 mph 1020.6mb 62f 63f
7:50pm 7.5ft 7s 6s 22 27 mph 1020.5mb 62f 63f
6:50pm 7.5ft 8s 6s 22 27 mph 1020.7mb 62f 62f
5:50pm 7.5ft 6s 6s 22 27 mph 1020.8mb 62f 62f
4:50pm 7ft 7s 6s 22 25 mph 1021mb 62f 62f
3:50pm 7ft 7s 6s 22 27 mph 1020.8mb 62f 62f
2:50pm 7ft 7s 6s 20 25 mph 1020.7mb 62f 62f
1:50pm 6.5ft 7s 5s 20 25 mph 1020.5mb 62f 62f
12:50pm 7ft 6s 6s 20 25 mph 1020.1mb 62f 61f
11:50am 7ft 6s 6s 22 27 mph 1020.2mb 62f 61f
10:50am 6ft 6s 5s 22 27 mph 1020.4mb 62f 61f
9:50am 6ft 6s 5s 18 22 mph 1020.7mb 62f 61f
8:50am 6ft 6s 5s 22 27 mph 1020.8mb 62f 61f
7:50am 6ft 5s 5s 22 27 mph 1021mb 62f 61f
6:50am 5ft 5s 5s 20 25 mph 1021.7mb 62f 62f
5:50am 5ft 5s 5s 20 25 mph 1021.9mb 62f 62f
4:50am 4.5ft 6s 5s 20 25 mph 1021.6mb 62f 62f
3:50am 4.5ft 7s 5s 20 22 mph 1021.5mb 62f 62f
2:50am 4.5ft 7s 5s 18 22 mph 1021.7mb 62f 62f
1:50am 4.5ft 7s 5s 11 13 mph 1022.1mb 62f 62f
12:50am 4.5ft 7s 5s 13 16 mph 1022.6mb 62f 63f
Fri 07/03 11:50pm 4.5ft 7s 5s 18 20 mph 1022.8mb 62f 62f
10:50pm 4.5ft 6s 5s 16 20 mph 1023.4mb 62f 63f
9:50pm 5ft 6s 5s 13 16 mph 1023.9mb 62f 62f
8:50pm 5ft 6s 5s 16 20 mph 1023.9mb 62f 62f
7:50pm 5ft 7s 5s 18 22 mph 1024.1mb 62f 61f
6:50pm 5ft 6s 5s 18 22 mph 1024.1mb 62f 61f
5:50pm 5ft 6s 5s 20 22 mph 1024mb 62f 61f
4:50pm 5.5ft 6s 5s 20 25 mph 1024mb 62f 61f
3:50pm 5ft 6s 5s 22 27 mph 1024.1mb 62f 61f
2:50pm 5ft 6s 5s 22 27 mph 1023.8mb 62f 61f
1:50pm 5.5ft 6s 5s 22 25 mph 1023.6mb 62f 61f
12:50pm 5ft 7s 5s 18 22 mph 1023.4mb 62f 61f
11:50am 4.5ft 6s 5s 18 22 mph 1023.5mb 62f 61f
10:50am 5ft 7s 5s 18 22 mph 1023.3mb 62f 61f
9:50am 5ft 6s 5s 20 25 mph 1023.5mb 62f 61f
8:50am 4.5ft 7s 5s 20 25 mph 1023.8mb 62f 61f
7:50am 5ft 7s 5s 20 22 mph 1024.1mb 62f 61f
6:50am 5ft 6s 5s 18 22 mph 1024.1mb 62f 61f
5:50am 5ft 7s 5s 18 22 mph 1024.2mb 62f 61f
4:50am 5.5ft 7s 5s 20 25 mph 1024mb 62f 61f
3:50am 5ft 7s 5s 20 25 mph 1023.9mb 62f 61f
2:50am 5ft 7s 5s 20 22 mph 1024.1mb 62f 62f
1:50am 5.5ft 7s 5s 20 22 mph 1024.5mb 62f 61f
12:50am 5.5ft 8s 5s 18 20 mph 1024.7mb 62f 62f
Thu 07/02 11:50pm 6ft 7s 6s 18 22 mph 1024.8mb 62f 62f
10:50pm 5.5ft 8s 5s 20 25 mph 1024.5mb 62f 62f
9:50pm 5.5ft 8s 6s 18 20 mph 1025mb 62f 62f
8:50pm 5ft 7s 5s 18 20 mph 1025.3mb 62f 62f